sensor_id;sensor_type;location;lat;lon;timestamp;temperature;humidity
12276;DHT22;6200;48.144;11.424;2023-06-14T00:00:17;14.40;78.20
12276;DHT22;6200;48.144;11.424;2023-06-14T00:02:43;14.30;78.50
12276;DHT22;6200;48.144;11.424;2023-06-14T00:05:08;14.30;78.90
12276;DHT22;6200;48.144;11.424;2023-06-14T00:07:38;14.20;79.40
12276;DHT22;6200;48.144;11.424;2023-06-14T00:10:08;14.20;80.00
12276;DHT22;6200;48.144;11.424;2023-06-14T00:12:33;14.10;80.50
12276;DHT22;6200;48.144;11.424;2023-06-14T00:14:59;14.10;80.40
12276;DHT22;6200;48.144;11.424;2023-06-14T00:17:27;14.10;81.00
12276;DHT22;6200;48.144;11.424;2023-06-14T00:19:58;14.10;80.60
12276;DHT22;6200;48.144;11.424;2023-06-14T00:22:25;14.00;80.60
12276;DHT22;6200;48.144;11.424;2023-06-14T00:24:51;14.10;80.70
12276;DHT22;6200;48.144;11.424;2023-06-14T00:27:17;14.10;80.20
12276;DHT22;6200;48.144;11.424;2023-06-14T00:29:43;14.10;80.00
12276;DHT22;6200;48.144;11.424;2023-06-14T00:32:08;14.00;80.50
12276;DHT22;6200;48.144;11.424;2023-06-14T00:34:34;13.90;81.10
12276;DHT22;6200;48.144;11.424;2023-06-14T00:37:00;13.90;81.50
12276;DHT22;6200;48.144;11.424;2023-06-14T00:39:26;13.80;82.10
12276;DHT22;6200;48.144;11.424;2023-06-14T00:41:51;13.70;82.60
12276;DHT22;6200;48.144;11.424;2023-06-14T00:44:17;13.70;83.00
12276;DHT22;6200;48.144;11.424;2023-06-14T00:46:45;13.60;82.90
12276;DHT22;6200;48.144;11.424;2023-06-14T00:49:12;13.60;83.10
12276;DHT22;6200;48.144;11.424;2023-06-14T00:51:39;13.50;82.60
12276;DHT22;6200;48.144;11.424;2023-06-14T00:54:05;13.50;82.90
12276;DHT22;6200;48.144;11.424;2023-06-14T00:56:30;13.50;83.40
12276;DHT22;6200;48.144;11.424;2023-06-14T00:58:56;13.40;83.70
12276;DHT22;6200;48.144;11.424;2023-06-14T01:01:23;13.50;84.20
12276;DHT22;6200;48.144;11.424;2023-06-14T01:03:49;13.50;83.60
12276;DHT22;6200;48.144;11.424;2023-06-14T01:06:28;13.50;83.80
12276;DHT22;6200;48.144;11.424;2023-06-14T01:09:16;13.50;83.50
12276;DHT22;6200;48.144;11.424;2023-06-14T01:12:11;13.40;83.80
12276;DHT22;6200;48.144;11.424;2023-06-14T01:14:39;13.30;84.30
12276;DHT22;6200;48.144;11.424;2023-06-14T01:17:05;13.30;85.00
12276;DHT22;6200;48.144;11.424;2023-06-14T01:19:33;13.30;85.30
12276;DHT22;6200;48.144;11.424;2023-06-14T01:22:00;13.30;85.90
12276;DHT22;6200;48.144;11.424;2023-06-14T01:24:26;13.30;86.00
12276;DHT22;6200;48.144;11.424;2023-06-14T01:26:55;13.30;86.00
12276;DHT22;6200;48.144;11.424;2023-06-14T01:29:22;13.20;86.00
12276;DHT22;6200;48.144;11.424;2023-06-14T01:31:49;13.20;86.70
12276;DHT22;6200;48.144;11.424;2023-06-14T01:34:15;13.20;86.90
12276;DHT22;6200;48.144;11.424;2023-06-14T01:36:43;13.20;87.10
12276;DHT22;6200;48.144;11.424;2023-06-14T01:39:14;13.10;87.20
12276;DHT22;6200;48.144;11.424;2023-06-14T01:41:41;13.00;87.70
12276;DHT22;6200;48.144;11.424;2023-06-14T01:44:08;12.90;88.10
12276;DHT22;6200;48.144;11.424;2023-06-14T01:46:33;13.00;88.60
12276;DHT22;6200;48.144;11.424;2023-06-14T01:48:59;12.90;88.70
12276;DHT22;6200;48.144;11.424;2023-06-14T01:51:24;12.80;89.10
12276;DHT22;6200;48.144;11.424;2023-06-14T01:53:50;12.80;89.30
12276;DHT22;6200;48.144;11.424;2023-06-14T01:56:16;12.70;89.60
12276;DHT22;6200;48.144;11.424;2023-06-14T01:58:41;12.70;90.00
12276;DHT22;6200;48.144;11.424;2023-06-14T02:01:07;12.70;89.90
12276;DHT22;6200;48.144;11.424;2023-06-14T02:03:33;12.60;89.80
12276;DHT22;6200;48.144;11.424;2023-06-14T02:05:59;12.60;90.00
12276;DHT22;6200;48.144;11.424;2023-06-14T02:08:25;12.60;89.50
12276;DHT22;6200;48.144;11.424;2023-06-14T02:10:51;12.60;90.00
12276;DHT22;6200;48.144;11.424;2023-06-14T02:13:16;12.60;90.00
12276;DHT22;6200;48.144;11.424;2023-06-14T02:15:42;12.60;90.40
12276;DHT22;6200;48.144;11.424;2023-06-14T02:18:09;12.50;90.40
12276;DHT22;6200;48.144;11.424;2023-06-14T02:20:35;12.50;90.60
12276;DHT22;6200;48.144;11.424;2023-06-14T02:23:01;12.40;90.80
12276;DHT22;6200;48.144;11.424;2023-06-14T02:25:27;12.40;90.60
12276;DHT22;6200;48.144;11.424;2023-06-14T02:27:54;12.40;90.70
12276;DHT22;6200;48.144;11.424;2023-06-14T02:30:20;12.30;90.80
12276;DHT22;6200;48.144;11.424;2023-06-14T02:32:46;12.30;90.90
12276;DHT22;6200;48.144;11.424;2023-06-14T02:35:14;12.30;91.10
12276;DHT22;6200;48.144;11.424;2023-06-14T02:37:39;12.30;91.20
12276;DHT22;6200;48.144;11.424;2023-06-14T02:40:05;12.20;91.20
12276;DHT22;6200;48.144;11.424;2023-06-14T02:42:31;12.20;91.40
12276;DHT22;6200;48.144;11.424;2023-06-14T02:44:57;12.10;91.40
12276;DHT22;6200;48.144;11.424;2023-06-14T02:47:22;12.10;91.60
12276;DHT22;6200;48.144;11.424;2023-06-14T02:49:48;12.10;91.60
12276;DHT22;6200;48.144;11.424;2023-06-14T02:52:13;12.10;91.70
12276;DHT22;6200;48.144;11.424;2023-06-14T02:54:39;12.10;91.90
12276;DHT22;6200;48.144;11.424;2023-06-14T02:57:05;12.10;91.90
12276;DHT22;6200;48.144;11.424;2023-06-14T02:59:33;12.10;92.00
12276;DHT22;6200;48.144;11.424;2023-06-14T03:01:59;12.00;92.00
12276;DHT22;6200;48.144;11.424;2023-06-14T03:04:25;12.00;92.20
12276;DHT22;6200;48.144;11.424;2023-06-14T03:06:52;12.00;93.00
12276;DHT22;6200;48.144;11.424;2023-06-14T03:09:19;11.90;93.80
12276;DHT22;6200;48.144;11.424;2023-06-14T03:11:44;11.90;93.80
12276;DHT22;6200;48.144;11.424;2023-06-14T03:14:10;11.90;93.70
12276;DHT22;6200;48.144;11.424;2023-06-14T03:16:37;11.90;94.00
12276;DHT22;6200;48.144;11.424;2023-06-14T03:19:02;11.80;93.20
12276;DHT22;6200;48.144;11.424;2023-06-14T03:21:28;11.80;93.10
12276;DHT22;6200;48.144;11.424;2023-06-14T03:23:54;11.90;93.30
12276;DHT22;6200;48.144;11.424;2023-06-14T03:26:19;11.90;93.20
12276;DHT22;6200;48.144;11.424;2023-06-14T03:28:45;11.80;93.50
12276;DHT22;6200;48.144;11.424;2023-06-14T03:31:12;11.70;93.90
12276;DHT22;6200;48.144;11.424;2023-06-14T03:33:38;11.70;93.80
12276;DHT22;6200;48.144;11.424;2023-06-14T03:36:04;11.60;94.60
12276;DHT22;6200;48.144;11.424;2023-06-14T03:38:30;11.60;94.30
12276;DHT22;6200;48.144;11.424;2023-06-14T03:40:56;11.60;94.20
12276;DHT22;6200;48.144;11.424;2023-06-14T03:43:22;11.70;94.00
12276;DHT22;6200;48.144;11.424;2023-06-14T03:45:47;11.70;93.20
12276;DHT22;6200;48.144;11.424;2023-06-14T03:48:13;11.70;94.10
12276;DHT22;6200;48.144;11.424;2023-06-14T03:50:38;11.70;95.20
12276;DHT22;6200;48.144;11.424;2023-06-14T03:53:05;11.60;95.00
12276;DHT22;6200;48.144;11.424;2023-06-14T03:55:31;11.60;95.10
12276;DHT22;6200;48.144;11.424;2023-06-14T03:57:57;11.60;95.80
12276;DHT22;6200;48.144;11.424;2023-06-14T04:00:22;11.70;95.50
12276;DHT22;6200;48.144;11.424;2023-06-14T04:02:48;11.60;95.60
12276;DHT22;6200;48.144;11.424;2023-06-14T04:05:14;11.60;95.70
12276;DHT22;6200;48.144;11.424;2023-06-14T04:07:42;11.60;95.90
12276;DHT22;6200;48.144;11.424;2023-06-14T04:10:14;11.70;96.00
12276;DHT22;6200;48.144;11.424;2023-06-14T04:12:40;11.70;96.00
12276;DHT22;6200;48.144;11.424;2023-06-14T04:15:06;11.70;95.90
12276;DHT22;6200;48.144;11.424;2023-06-14T04:17:33;11.70;95.80
12276;DHT22;6200;48.144;11.424;2023-06-14T04:19:59;11.70;95.80
12276;DHT22;6200;48.144;11.424;2023-06-14T04:22:26;11.70;95.80
12276;DHT22;6200;48.144;11.424;2023-06-14T04:24:55;11.70;95.30
12276;DHT22;6200;48.144;11.424;2023-06-14T04:27:22;11.70;95.20
12276;DHT22;6200;48.144;11.424;2023-06-14T04:29:54;11.80;95.60
12276;DHT22;6200;48.144;11.424;2023-06-14T04:32:26;11.80;96.40
12276;DHT22;6200;48.144;11.424;2023-06-14T04:34:55;11.80;96.20
12276;DHT22;6200;48.144;11.424;2023-06-14T04:37:21;11.80;96.10
12276;DHT22;6200;48.144;11.424;2023-06-14T04:39:48;11.80;96.30
12276;DHT22;6200;48.144;11.424;2023-06-14T04:42:14;11.80;96.20
12276;DHT22;6200;48.144;11.424;2023-06-14T04:44:41;11.80;96.60
12276;DHT22;6200;48.144;11.424;2023-06-14T04:47:07;11.90;96.40
12276;DHT22;6200;48.144;11.424;2023-06-14T04:49:32;12.00;96.70
12276;DHT22;6200;48.144;11.424;2023-06-14T04:51:59;12.00;96.60
12276;DHT22;6200;48.144;11.424;2023-06-14T04:54:27;12.10;96.70
12276;DHT22;6200;48.144;11.424;2023-06-14T04:56:53;12.10;96.70
12276;DHT22;6200;48.144;11.424;2023-06-14T04:59:20;12.20;96.60
12276;DHT22;6200;48.144;11.424;2023-06-14T05:01:51;12.20;97.10
12276;DHT22;6200;48.144;11.424;2023-06-14T05:04:18;12.20;97.00
12276;DHT22;6200;48.144;11.424;2023-06-14T05:06:44;12.30;96.60
12276;DHT22;6200;48.144;11.424;2023-06-14T05:09:11;12.40;97.30
12276;DHT22;6200;48.144;11.424;2023-06-14T05:11:37;12.40;96.90
12276;DHT22;6200;48.144;11.424;2023-06-14T05:14:02;12.50;96.90
12276;DHT22;6200;48.144;11.424;2023-06-14T05:16:28;12.50;97.40
12276;DHT22;6200;48.144;11.424;2023-06-14T05:18:54;12.60;96.80
12276;DHT22;6200;48.144;11.424;2023-06-14T05:21:20;12.70;96.40
12276;DHT22;6200;48.144;11.424;2023-06-14T05:23:46;12.70;96.10
12276;DHT22;6200;48.144;11.424;2023-06-14T05:26:11;12.90;95.80
12276;DHT22;6200;48.144;11.424;2023-06-14T05:28:37;13.00;96.00
12276;DHT22;6200;48.144;11.424;2023-06-14T05:31:02;13.10;94.10
12276;DHT22;6200;48.144;11.424;2023-06-14T05:33:28;13.30;94.40
12276;DHT22;6200;48.144;11.424;2023-06-14T05:35:54;13.40;94.30
12276;DHT22;6200;48.144;11.424;2023-06-14T05:38:19;13.70;94.70
12276;DHT22;6200;48.144;11.424;2023-06-14T05:40:45;13.90;94.00
12276;DHT22;6200;48.144;11.424;2023-06-14T05:43:10;14.20;94.40
12276;DHT22;6200;48.144;11.424;2023-06-14T05:45:36;14.40;93.40
12276;DHT22;6200;48.144;11.424;2023-06-14T05:48:01;14.70;92.30
12276;DHT22;6200;48.144;11.424;2023-06-14T05:50:27;15.00;91.40
12276;DHT22;6200;48.144;11.424;2023-06-14T05:52:53;15.20;91.50
12276;DHT22;6200;48.144;11.424;2023-06-14T05:55:19;15.40;90.60
12276;DHT22;6200;48.144;11.424;2023-06-14T05:57:45;15.60;90.20
12276;DHT22;6200;48.144;11.424;2023-06-14T06:00:11;15.80;88.10
12276;DHT22;6200;48.144;11.424;2023-06-14T06:02:43;16.00;88.60
12276;DHT22;6200;48.144;11.424;2023-06-14T06:05:09;16.20;88.70
12276;DHT22;6200;48.144;11.424;2023-06-14T06:07:35;16.40;87.30
12276;DHT22;6200;48.144;11.424;2023-06-14T06:10:00;16.60;85.20
12276;DHT22;6200;48.144;11.424;2023-06-14T06:12:26;16.90;85.10
12276;DHT22;6200;48.144;11.424;2023-06-14T06:14:51;17.10;82.40
12276;DHT22;6200;48.144;11.424;2023-06-14T06:17:17;17.40;82.30
12276;DHT22;6200;48.144;11.424;2023-06-14T06:19:42;17.70;80.90
12276;DHT22;6200;48.144;11.424;2023-06-14T06:22:08;18.10;78.20
12276;DHT22;6200;48.144;11.424;2023-06-14T06:24:33;18.70;78.70
12276;DHT22;6200;48.144;11.424;2023-06-14T06:26:59;19.40;76.50
12276;DHT22;6200;48.144;11.424;2023-06-14T06:29:26;20.20;72.40
12276;DHT22;6200;48.144;11.424;2023-06-14T06:31:51;21.00;70.00
12276;DHT22;6200;48.144;11.424;2023-06-14T06:34:17;21.70;66.10
12276;DHT22;6200;48.144;11.424;2023-06-14T06:36:42;22.60;64.80
12276;DHT22;6200;48.144;11.424;2023-06-14T06:39:08;23.40;61.50
12276;DHT22;6200;48.144;11.424;2023-06-14T06:41:39;24.40;58.50
12276;DHT22;6200;48.144;11.424;2023-06-14T06:44:05;24.90;59.20
12276;DHT22;6200;48.144;11.424;2023-06-14T06:46:32;25.60;56.80
12276;DHT22;6200;48.144;11.424;2023-06-14T06:48:58;26.20;55.20
12276;DHT22;6200;48.144;11.424;2023-06-14T06:51:23;26.40;55.50
12276;DHT22;6200;48.144;11.424;2023-06-14T06:53:53;26.90;54.00
12276;DHT22;6200;48.144;11.424;2023-06-14T06:56:19;26.80;54.60
12276;DHT22;6200;48.144;11.424;2023-06-14T06:58:45;27.40;52.10
12276;DHT22;6200;48.144;11.424;2023-06-14T07:01:10;27.50;51.90
12276;DHT22;6200;48.144;11.424;2023-06-14T07:03:37;27.80;51.10
12276;DHT22;6200;48.144;11.424;2023-06-14T07:06:02;28.20;49.10
12276;DHT22;6200;48.144;11.424;2023-06-14T07:08:28;28.50;49.00
12276;DHT22;6200;48.144;11.424;2023-06-14T07:10:53;28.80;48.30
12276;DHT22;6200;48.144;11.424;2023-06-14T07:13:19;28.90;47.40
12276;DHT22;6200;48.144;11.424;2023-06-14T07:15:44;28.80;49.40
12276;DHT22;6200;48.144;11.424;2023-06-14T07:18:10;28.90;48.10
12276;DHT22;6200;48.144;11.424;2023-06-14T07:20:35;29.00;47.10
12276;DHT22;6200;48.144;11.424;2023-06-14T07:23:03;29.00;47.50
12276;DHT22;6200;48.144;11.424;2023-06-14T07:25:29;29.00;46.70
12276;DHT22;6200;48.144;11.424;2023-06-14T07:27:54;28.70;46.10
12276;DHT22;6200;48.144;11.424;2023-06-14T07:30:20;28.30;48.70
12276;DHT22;6200;48.144;11.424;2023-06-14T07:32:46;28.10;48.10
12276;DHT22;6200;48.144;11.424;2023-06-14T07:35:11;27.80;48.00
12276;DHT22;6200;48.144;11.424;2023-06-14T07:37:37;27.20;51.00
12276;DHT22;6200;48.144;11.424;2023-06-14T07:40:03;26.90;52.30
12276;DHT22;6200;48.144;11.424;2023-06-14T07:42:33;26.80;52.10
12276;DHT22;6200;48.144;11.424;2023-06-14T07:44:59;26.90;49.70
12276;DHT22;6200;48.144;11.424;2023-06-14T07:47:24;27.20;50.30
12276;DHT22;6200;48.144;11.424;2023-06-14T07:49:50;27.00;49.70
12276;DHT22;6200;48.144;11.424;2023-06-14T07:52:16;27.30;49.60
12276;DHT22;6200;48.144;11.424;2023-06-14T07:54:41;27.10;50.80
12276;DHT22;6200;48.144;11.424;2023-06-14T07:57:07;27.00;51.20
12276;DHT22;6200;48.144;11.424;2023-06-14T07:59:32;26.90;49.60
12276;DHT22;6200;48.144;11.424;2023-06-14T08:01:58;26.60;50.10
12276;DHT22;6200;48.144;11.424;2023-06-14T08:04:24;26.40;51.00
12276;DHT22;6200;48.144;11.424;2023-06-14T08:06:50;26.30;50.80
12276;DHT22;6200;48.144;11.424;2023-06-14T08:09:16;26.00;50.00
12276;DHT22;6200;48.144;11.424;2023-06-14T08:11:41;25.80;52.30
12276;DHT22;6200;48.144;11.424;2023-06-14T08:14:07;26.00;52.10
12276;DHT22;6200;48.144;11.424;2023-06-14T08:16:33;25.80;51.60
12276;DHT22;6200;48.144;11.424;2023-06-14T08:18:58;25.70;52.40
12276;DHT22;6200;48.144;11.424;2023-06-14T08:21:24;25.70;49.70
12276;DHT22;6200;48.144;11.424;2023-06-14T08:23:52;25.60;48.50
12276;DHT22;6200;48.144;11.424;2023-06-14T08:26:19;25.50;50.50
12276;DHT22;6200;48.144;11.424;2023-06-14T08:28:44;25.60;51.30
12276;DHT22;6200;48.144;11.424;2023-06-14T08:31:10;25.50;51.10
12276;DHT22;6200;48.144;11.424;2023-06-14T08:33:36;25.40;51.00
12276;DHT22;6200;48.144;11.424;2023-06-14T08:36:02;25.40;50.00
12276;DHT22;6200;48.144;11.424;2023-06-14T08:38:27;25.50;51.00
12276;DHT22;6200;48.144;11.424;2023-06-14T08:40:57;25.60;50.70
12276;DHT22;6200;48.144;11.424;2023-06-14T08:43:23;25.60;50.00
12276;DHT22;6200;48.144;11.424;2023-06-14T08:45:53;25.70;49.60
12276;DHT22;6200;48.144;11.424;2023-06-14T08:48:19;25.80;48.20
12276;DHT22;6200;48.144;11.424;2023-06-14T08:50:47;25.80;48.10
12276;DHT22;6200;48.144;11.424;2023-06-14T08:53:14;26.10;49.80
12276;DHT22;6200;48.144;11.424;2023-06-14T08:55:41;26.10;50.00
12276;DHT22;6200;48.144;11.424;2023-06-14T08:58:08;26.30;47.50
12276;DHT22;6200;48.144;11.424;2023-06-14T09:00:35;26.40;50.10
12276;DHT22;6200;48.144;11.424;2023-06-14T09:03:03;26.20;48.30
12276;DHT22;6200;48.144;11.424;2023-06-14T09:05:28;26.30;48.80
12276;DHT22;6200;48.144;11.424;2023-06-14T09:07:54;26.30;47.60
12276;DHT22;6200;48.144;11.424;2023-06-14T09:10:22;26.40;48.10
12276;DHT22;6200;48.144;11.424;2023-06-14T09:12:47;26.40;48.50
12276;DHT22;6200;48.144;11.424;2023-06-14T09:15:13;26.80;47.80
12276;DHT22;6200;48.144;11.424;2023-06-14T09:17:40;26.70;47.10
12276;DHT22;6200;48.144;11.424;2023-06-14T09:20:07;26.70;46.80
12276;DHT22;6200;48.144;11.424;2023-06-14T09:22:38;26.70;48.70
12276;DHT22;6200;48.144;11.424;2023-06-14T09:25:05;27.00;47.60
12276;DHT22;6200;48.144;11.424;2023-06-14T09:27:31;27.10;46.80
12276;DHT22;6200;48.144;11.424;2023-06-14T09:29:56;27.10;46.70
12276;DHT22;6200;48.144;11.424;2023-06-14T09:32:22;27.40;46.50
12276;DHT22;6200;48.144;11.424;2023-06-14T09:34:48;27.20;46.50
12276;DHT22;6200;48.144;11.424;2023-06-14T09:37:27;27.30;45.30
12276;DHT22;6200;48.144;11.424;2023-06-14T09:39:53;27.50;46.80
12276;DHT22;6200;48.144;11.424;2023-06-14T09:42:19;27.50;45.50
12276;DHT22;6200;48.144;11.424;2023-06-14T09:44:47;27.60;45.10
12276;DHT22;6200;48.144;11.424;2023-06-14T09:47:15;27.70;45.90
12276;DHT22;6200;48.144;11.424;2023-06-14T09:49:44;27.70;47.40
12276;DHT22;6200;48.144;11.424;2023-06-14T09:52:20;27.70;47.30
12276;DHT22;6200;48.144;11.424;2023-06-14T09:54:47;27.90;47.90
12276;DHT22;6200;48.144;11.424;2023-06-14T09:57:14;28.00;45.90
12276;DHT22;6200;48.144;11.424;2023-06-14T09:59:45;28.00;45.70
12276;DHT22;6200;48.144;11.424;2023-06-14T10:02:35;28.10;46.40
12276;DHT22;6200;48.144;11.424;2023-06-14T10:05:03;28.30;47.00
12276;DHT22;6200;48.144;11.424;2023-06-14T10:07:44;28.40;47.40
12276;DHT22;6200;48.144;11.424;2023-06-14T10:10:13;28.40;47.10
12276;DHT22;6200;48.144;11.424;2023-06-14T10:12:40;28.40;47.20
12276;DHT22;6200;48.144;11.424;2023-06-14T10:15:08;28.40;44.80
12276;DHT22;6200;48.144;11.424;2023-06-14T10:17:46;28.70;45.40
12276;DHT22;6200;48.144;11.424;2023-06-14T10:22:51;28.80;44.20
12276;DHT22;6200;48.144;11.424;2023-06-14T10:25:31;28.90;45.00
12276;DHT22;6200;48.144;11.424;2023-06-14T10:28:19;29.20;45.60
12276;DHT22;6200;48.144;11.424;2023-06-14T10:31:04;28.90;44.70
12276;DHT22;6200;48.144;11.424;2023-06-14T10:33:34;28.40;45.20
12276;DHT22;6200;48.144;11.424;2023-06-14T10:36:09;28.30;47.00
12276;DHT22;6200;48.144;11.424;2023-06-14T10:38:37;28.40;45.10
12276;DHT22;6200;48.144;11.424;2023-06-14T10:41:04;28.40;46.10
12276;DHT22;6200;48.144;11.424;2023-06-14T10:43:31;28.50;45.90
12276;DHT22;6200;48.144;11.424;2023-06-14T10:46:16;28.20;44.90
12276;DHT22;6200;48.144;11.424;2023-06-14T10:48:44;28.10;46.00
12276;DHT22;6200;48.144;11.424;2023-06-14T10:51:19;28.20;45.20
12276;DHT22;6200;48.144;11.424;2023-06-14T10:53:48;28.10;45.00
12276;DHT22;6200;48.144;11.424;2023-06-14T10:56:28;27.70;46.20
12276;DHT22;6200;48.144;11.424;2023-06-14T10:58:54;27.40;46.20
12276;DHT22;6200;48.144;11.424;2023-06-14T11:01:32;27.10;47.50
12276;DHT22;6200;48.144;11.424;2023-06-14T11:04:07;27.20;47.20
12276;DHT22;6200;48.144;11.424;2023-06-14T11:06:48;27.20;47.20
12276;DHT22;6200;48.144;11.424;2023-06-14T11:11:49;27.50;46.60
12276;DHT22;6200;48.144;11.424;2023-06-14T11:14:16;27.70;45.60
12276;DHT22;6200;48.144;11.424;2023-06-14T11:16:48;27.80;46.80
12276;DHT22;6200;48.144;11.424;2023-06-14T11:19:13;27.80;47.20
12276;DHT22;6200;48.144;11.424;2023-06-14T11:21:42;27.60;47.10
12276;DHT22;6200;48.144;11.424;2023-06-14T11:24:10;27.80;47.20
12276;DHT22;6200;48.144;11.424;2023-06-14T11:26:37;27.70;46.40
12276;DHT22;6200;48.144;11.424;2023-06-14T11:29:03;27.50;46.70
12276;DHT22;6200;48.144;11.424;2023-06-14T11:31:29;27.30;48.50
12276;DHT22;6200;48.144;11.424;2023-06-14T11:33:56;27.20;46.00
12276;DHT22;6200;48.144;11.424;2023-06-14T11:36:22;27.30;46.40
12276;DHT22;6200;48.144;11.424;2023-06-14T11:38:48;27.40;48.00
12276;DHT22;6200;48.144;11.424;2023-06-14T11:41:14;27.50;48.50
12276;DHT22;6200;48.144;11.424;2023-06-14T11:43:40;27.50;45.90
12276;DHT22;6200;48.144;11.424;2023-06-14T11:46:12;27.30;44.90
12276;DHT22;6200;48.144;11.424;2023-06-14T11:48:41;27.00;45.80
12276;DHT22;6200;48.144;11.424;2023-06-14T11:51:07;27.00;46.10
12276;DHT22;6200;48.144;11.424;2023-06-14T11:53:33;26.60;48.20
12276;DHT22;6200;48.144;11.424;2023-06-14T11:55:59;27.00;46.90
12276;DHT22;6200;48.144;11.424;2023-06-14T11:58:26;27.20;47.10
12276;DHT22;6200;48.144;11.424;2023-06-14T12:00:53;26.90;45.90
12276;DHT22;6200;48.144;11.424;2023-06-14T12:03:23;27.40;45.60
12276;DHT22;6200;48.144;11.424;2023-06-14T12:06:01;27.40;46.40
12276;DHT22;6200;48.144;11.424;2023-06-14T12:08:35;27.50;44.80
12276;DHT22;6200;48.144;11.424;2023-06-14T12:11:06;27.70;44.80
12276;DHT22;6200;48.144;11.424;2023-06-14T12:13:34;27.80;46.00
12276;DHT22;6200;48.144;11.424;2023-06-14T12:15:59;28.00;44.90
12276;DHT22;6200;48.144;11.424;2023-06-14T12:18:35;28.10;45.40
12276;DHT22;6200;48.144;11.424;2023-06-14T12:21:03;28.50;44.20
12276;DHT22;6200;48.144;11.424;2023-06-14T12:26:07;29.10;43.70
12276;DHT22;6200;48.144;11.424;2023-06-14T12:28:33;29.20;43.90
12276;DHT22;6200;48.144;11.424;2023-06-14T12:30:58;29.30;44.10
12276;DHT22;6200;48.144;11.424;2023-06-14T12:33:24;29.60;43.60
12276;DHT22;6200;48.144;11.424;2023-06-14T12:35:53;29.80;43.10
12276;DHT22;6200;48.144;11.424;2023-06-14T12:38:20;29.80;42.90
12276;DHT22;6200;48.144;11.424;2023-06-14T12:40:46;30.00;42.90
12276;DHT22;6200;48.144;11.424;2023-06-14T12:43:12;30.10;42.20
12276;DHT22;6200;48.144;11.424;2023-06-14T12:45:37;30.10;41.80
12276;DHT22;6200;48.144;11.424;2023-06-14T12:48:03;30.20;41.40
12276;DHT22;6200;48.144;11.424;2023-06-14T12:50:29;30.00;43.90
12276;DHT22;6200;48.144;11.424;2023-06-14T12:52:54;30.20;43.60
12276;DHT22;6200;48.144;11.424;2023-06-14T12:55:20;30.30;43.20
12276;DHT22;6200;48.144;11.424;2023-06-14T12:57:46;30.40;42.40
12276;DHT22;6200;48.144;11.424;2023-06-14T13:00:15;30.40;41.60
12276;DHT22;6200;48.144;11.424;2023-06-14T13:02:40;30.50;41.80
12276;DHT22;6200;48.144;11.424;2023-06-14T13:05:06;30.70;40.60
12276;DHT22;6200;48.144;11.424;2023-06-14T13:07:32;30.70;40.20
12276;DHT22;6200;48.144;11.424;2023-06-14T13:09:57;30.80;42.30
12276;DHT22;6200;48.144;11.424;2023-06-14T13:12:23;30.90;41.40
12276;DHT22;6200;48.144;11.424;2023-06-14T13:14:48;31.00;41.60
12276;DHT22;6200;48.144;11.424;2023-06-14T13:17:14;31.20;41.90
12276;DHT22;6200;48.144;11.424;2023-06-14T13:19:40;31.30;41.40
12276;DHT22;6200;48.144;11.424;2023-06-14T13:22:07;31.60;40.40
12276;DHT22;6200;48.144;11.424;2023-06-14T13:24:33;31.70;41.40
12276;DHT22;6200;48.144;11.424;2023-06-14T13:26:59;31.60;40.40
12276;DHT22;6200;48.144;11.424;2023-06-14T13:29:25;31.10;41.10
12276;DHT22;6200;48.144;11.424;2023-06-14T13:31:52;30.70;41.30
12276;DHT22;6200;48.144;11.424;2023-06-14T13:34:18;30.60;41.80
12276;DHT22;6200;48.144;11.424;2023-06-14T13:36:43;30.80;41.60
12276;DHT22;6200;48.144;11.424;2023-06-14T13:39:09;31.10;40.50
12276;DHT22;6200;48.144;11.424;2023-06-14T13:41:36;32.20;40.90
12276;DHT22;6200;48.144;11.424;2023-06-14T13:44:01;31.30;41.00
12276;DHT22;6200;48.144;11.424;2023-06-14T13:46:29;31.50;41.20
12276;DHT22;6200;48.144;11.424;2023-06-14T13:48:55;31.50;41.00
12276;DHT22;6200;48.144;11.424;2023-06-14T13:51:20;31.60;40.30
12276;DHT22;6200;48.144;11.424;2023-06-14T13:53:49;31.30;41.40
12276;DHT22;6200;48.144;11.424;2023-06-14T13:56:16;31.40;40.60
12276;DHT22;6200;48.144;11.424;2023-06-14T13:58:42;31.10;41.60
12276;DHT22;6200;48.144;11.424;2023-06-14T14:01:08;30.80;41.30
12276;DHT22;6200;48.144;11.424;2023-06-14T14:03:34;30.60;41.70
12276;DHT22;6200;48.144;11.424;2023-06-14T14:06:03;30.30;41.70
12276;DHT22;6200;48.144;11.424;2023-06-14T14:08:29;30.00;42.60
12276;DHT22;6200;48.144;11.424;2023-06-14T14:10:54;29.80;42.40
12276;DHT22;6200;48.144;11.424;2023-06-14T14:13:21;29.60;42.70
12276;DHT22;6200;48.144;11.424;2023-06-14T14:15:47;29.30;42.90
12276;DHT22;6200;48.144;11.424;2023-06-14T14:18:14;29.00;41.60
12276;DHT22;6200;48.144;11.424;2023-06-14T14:20:40;28.50;42.40
12276;DHT22;6200;48.144;11.424;2023-06-14T14:23:06;26.60;41.30
12276;DHT22;6200;48.144;11.424;2023-06-14T14:25:31;28.20;43.50
12276;DHT22;6200;48.144;11.424;2023-06-14T14:27:57;28.10;41.70
12276;DHT22;6200;48.144;11.424;2023-06-14T14:30:22;28.00;44.40
12276;DHT22;6200;48.144;11.424;2023-06-14T14:32:49;27.90;44.90
12276;DHT22;6200;48.144;11.424;2023-06-14T14:35:16;28.10;44.80
12276;DHT22;6200;48.144;11.424;2023-06-14T14:37:42;27.70;44.90
12276;DHT22;6200;48.144;11.424;2023-06-14T14:40:08;27.50;43.50
12276;DHT22;6200;48.144;11.424;2023-06-14T14:42:35;27.40;44.40
12276;DHT22;6200;48.144;11.424;2023-06-14T14:45:00;27.10;45.30
12276;DHT22;6200;48.144;11.424;2023-06-14T14:47:26;27.10;45.30
12276;DHT22;6200;48.144;11.424;2023-06-14T14:49:52;27.10;45.40
12276;DHT22;6200;48.144;11.424;2023-06-14T14:52:17;27.10;44.30
12276;DHT22;6200;48.144;11.424;2023-06-14T14:54:43;27.00;45.00
12276;DHT22;6200;48.144;11.424;2023-06-14T14:57:08;26.80;46.90
12276;DHT22;6200;48.144;11.424;2023-06-14T14:59:34;26.70;46.40
12276;DHT22;6200;48.144;11.424;2023-06-14T15:01:59;26.90;46.10
12276;DHT22;6200;48.144;11.424;2023-06-14T15:04:25;26.60;46.10
12276;DHT22;6200;48.144;11.424;2023-06-14T15:06:50;26.40;46.60
12276;DHT22;6200;48.144;11.424;2023-06-14T15:09:16;26.10;46.10
12276;DHT22;6200;48.144;11.424;2023-06-14T15:11:42;26.00;46.00
12276;DHT22;6200;48.144;11.424;2023-06-14T15:14:10;25.90;46.90
12276;DHT22;6200;48.144;11.424;2023-06-14T15:16:35;25.80;47.40
12276;DHT22;6200;48.144;11.424;2023-06-14T15:19:01;25.80;47.40
12276;DHT22;6200;48.144;11.424;2023-06-14T15:21:26;25.80;46.70
12276;DHT22;6200;48.144;11.424;2023-06-14T15:23:52;25.70;47.20
12276;DHT22;6200;48.144;11.424;2023-06-14T15:26:19;25.70;46.60
12276;DHT22;6200;48.144;11.424;2023-06-14T15:28:44;25.70;47.90
12276;DHT22;6200;48.144;11.424;2023-06-14T15:31:10;25.60;46.20
12276;DHT22;6200;48.144;11.424;2023-06-14T15:33:35;25.80;47.60
12276;DHT22;6200;48.144;11.424;2023-06-14T15:36:01;25.70;47.60